Time;durP1;ratioP1;P1;durP2;ratioP2;P2;SDS_P1;SDS_P2;PMS_P1;PMS_P2;Temp;Humidity;BMP_temperature;BMP_pressure;BME280_temperature;BME280_humidity;BME280_pressure;Samples;Min_cycle;Max_cycle;Signal;HPM_P1;HPM_P2
2023/07/23 00:02:11;;;;;;;5.17;3.47;;;;;;;19.20;50.35;98559.50;5136799;27;42203;-82
2023/07/23 00:04:39;;;;;;;5.10;4.37;;;;;;;19.12;50.40;98546.03;5154428;27;42987;-84
2023/07/23 00:07:07;;;;;;;5.00;3.77;;;;;;;19.03;50.86;98529.03;5154273;27;41797;-83
2023/07/23 00:09:34;;;;;;;3.93;3.53;;;;;;;19.01;50.73;98534.56;5154137;27;40285;-83
2023/07/23 00:12:02;;;;;;;6.60;3.60;;;;;;;19.13;50.53;98550.41;5152943;27;41865;-83
2023/07/23 00:14:30;;;;;;;4.50;3.50;;;;;;;19.13;50.54;98558.44;5153086;27;42517;-85
2023/07/23 00:16:59;;;;;;;4.60;3.43;;;;;;;19.02;50.54;98540.75;5153007;27;41086;-84
2023/07/23 00:19:26;;;;;;;5.37;3.57;;;;;;;19.04;50.53;98544.09;5135990;27;40301;-84
2023/07/23 00:21:54;;;;;;;4.60;3.10;;;;;;;19.15;50.32;98549.25;5135417;27;40579;-84
2023/07/23 00:24:21;;;;;;;4.20;3.40;;;;;;;19.17;50.28;98559.81;5153302;27;42719;-83
2023/07/23 00:26:49;;;;;;;3.87;3.00;;;;;;;19.04;50.44;98538.75;5135641;27;41083;-83
2023/07/23 00:29:16;;;;;;;3.97;3.37;;;;;;;19.19;50.24;98557.81;5135868;27;39078;-82
2023/07/23 00:31:44;;;;;;;4.60;3.60;;;;;;;19.18;50.84;98543.53;5153036;27;41609;-83
2023/07/23 00:34:13;;;;;;;5.33;4.10;;;;;;;19.20;51.17;98543.38;5152883;27;41795;-82
2023/07/23 00:36:41;;;;;;;5.33;3.43;;;;;;;19.25;51.26;98546.47;5135321;27;41569;-83
2023/07/23 00:39:08;;;;;;;3.40;3.10;;;;;;;19.25;50.59;98546.47;5152777;27;40051;-83
2023/07/23 00:41:36;;;;;;;5.03;3.23;;;;;;;19.26;50.18;98540.09;5135475;27;41017;-83
2023/07/23 00:44:04;;;;;;;5.13;3.30;;;;;;;19.30;50.15;98536.06;5136446;27;42793;-82
2023/07/23 00:46:32;;;;;;;4.50;3.10;;;;;;;19.38;50.37;98541.50;5135992;27;41194;-82
2023/07/23 00:49:01;;;;;;;4.03;3.03;;;;;;;19.41;50.17;98549.22;5136186;27;39680;-82
2023/07/23 00:51:30;;;;;;;5.40;3.37;;;;;;;19.43;50.26;98544.53;5158535;27;41154;-81
2023/07/23 00:53:59;;;;;;;3.97;3.00;;;;;;;19.44;50.69;98538.16;5147272;27;41845;-80
2023/07/23 00:56:27;;;;;;;5.70;3.33;;;;;;;19.42;51.18;98537.47;5140368;27;41454;-83
2023/07/23 00:58:55;;;;;;;4.73;3.23;;;;;;;19.43;51.06;98533.78;5153242;27;40034;-81
2023/07/23 01:01:22;;;;;;;4.50;3.30;;;;;;;19.33;51.12;98514.28;5151788;27;42690;-81
2023/07/23 01:03:51;;;;;;;3.17;2.80;;;;;;;19.33;50.67;98514.28;5153417;27;42680;-82
2023/07/23 01:06:21;;;;;;;4.73;3.10;;;;;;;19.36;50.55;98522.00;5152568;27;42247;-82
2023/07/23 01:08:50;;;;;;;3.97;3.30;;;;;;;19.46;50.53;98530.78;5152392;27;40026;-82
2023/07/23 01:11:18;;;;;;;3.13;2.83;;;;;;;19.38;50.47;98514.66;5152123;27;41891;-83
2023/07/23 01:13:46;;;;;;;2.77;2.53;;;;;;;19.45;50.40;98534.47;5152136;27;42972;-83
2023/07/23 01:16:14;;;;;;;3.23;2.80;;;;;;;19.36;50.42;98505.91;5135118;27;41058;-83
2023/07/23 01:18:42;;;;;;;4.07;2.97;;;;;;;19.43;50.74;98520.38;5134954;27;39027;-82
2023/07/23 01:21:10;;;;;;;4.63;2.70;;;;;;;19.31;50.62;98506.38;5134865;27;40930;-82
2023/07/23 01:23:40;;;;;;;4.10;2.83;;;;;;;19.37;50.62;98518.34;5134711;27;42117;-81
2023/07/23 01:26:08;;;;;;;4.50;3.50;;;;;;;19.21;50.80;98496.75;5152115;27;42448;-82
2023/07/23 01:28:36;;;;;;;3.77;2.83;;;;;;;19.26;50.97;98510.56;5152140;27;40084;-83
2023/07/23 01:31:04;;;;;;;3.67;3.23;;;;;;;19.15;50.89;98502.78;5152060;27;41850;-83
2023/07/23 01:33:32;;;;;;;4.10;2.87;;;;;;;19.08;51.06;98496.34;5134768;27;43074;-83
2023/07/23 01:36:01;;;;;;;3.10;2.80;;;;;;;19.12;51.44;98508.44;5151902;27;42177;-83
2023/07/23 01:38:29;;;;;;;4.30;3.50;;;;;;;19.06;52.76;98492.97;5151893;27;40996;-83
2023/07/23 01:41:00;;;;;;;5.00;3.73;;;;;;;18.91;52.77;98474.78;5135390;27;42397;-82
2023/07/23 01:43:29;;;;;;;4.53;3.77;;;;;;;18.98;52.66;98494.59;5135560;27;41756;-82
2023/07/23 01:45:56;;;;;;;3.37;3.07;;;;;;;18.93;52.48;98488.84;5153854;27;42283;-82
2023/07/23 01:48:24;;;;;;;4.00;3.10;;;;;;;18.85;52.08;98479.91;5153163;27;40201;-81
2023/07/23 01:50:52;;;;;;;3.43;3.07;;;;;;;18.90;52.36;98494.56;5135012;27;41063;-82
2023/07/23 01:53:19;;;;;;;2.97;2.60;;;;;;;18.92;52.40;98497.91;5135352;27;42958;-83
2023/07/23 01:55:47;;;;;;;4.77;3.43;;;;;;;18.92;52.80;98499.75;5157016;27;42206;-83
2023/07/23 01:58:17;;;;;;;3.50;3.17;;;;;;;18.90;52.52;98494.56;5139323;27;40289;-82
2023/07/23 02:00:44;;;;;;;3.87;3.47;;;;;;;18.79;52.50;98484.06;5138824;27;40978;-82
2023/07/23 02:03:12;;;;;;;4.97;3.70;;;;;;;18.85;52.71;98501.38;5138471;27;41543;-82
2023/07/23 02:05:40;;;;;;;3.73;3.13;;;;;;;18.79;52.81;98502.84;5139139;27;42307;-81
2023/07/23 02:08:08;;;;;;;4.10;3.07;;;;;;;18.72;52.89;98498.25;5138758;27;40036;-82
2023/07/23 02:10:36;;;;;;;3.67;3.20;;;;;;;18.62;53.19;98493.00;5137130;27;41644;-82
2023/07/23 02:13:04;;;;;;;3.50;3.20;;;;;;;18.55;53.56;98489.19;5154975;27;43650;-83
2023/07/23 02:15:33;;;;;;;3.43;3.07;;;;;;;18.23;53.81;98453.09;5155294;27;42071;-81
2023/07/23 02:18:01;;;;;;;3.40;3.10;;;;;;;18.44;53.57;98486.75;5155048;27;40693;-81
2023/07/23 02:20:29;;;;;;;4.07;3.30;;;;;;;18.31;53.75;98471.91;5155197;27;42965;-83
2023/07/23 02:22:56;;;;;;;4.57;3.00;;;;;;;18.37;53.64;98494.59;5137207;27;42800;-84
2023/07/23 02:25:24;;;;;;;4.67;3.07;;;;;;;18.34;53.72;98480.63;5154743;27;41281;-84
2023/07/23 02:27:52;;;;;;;3.20;2.90;;;;;;;18.28;53.68;98488.31;5137343;27;39809;-83
2023/07/23 02:30:19;;;;;;;4.43;3.10;;;;;;;18.23;53.92;98489.75;5154914;27;41721;-82
2023/07/23 02:32:49;;;;;;;3.17;2.87;;;;;;;18.15;53.91;98487.84;5154787;27;42755;-82
2023/07/23 02:35:17;;;;;;;3.30;3.00;;;;;;;18.00;54.06;98470.63;5137328;27;42298;-82
2023/07/23 02:37:44;;;;;;;3.30;3.00;;;;;;;18.04;54.47;98492.59;5154842;27;40780;-82
2023/07/23 02:40:13;;;;;;;3.50;3.20;;;;;;;17.98;54.68;98490.50;5138089;27;42063;-82
2023/07/23 02:42:40;;;;;;;3.87;3.07;;;;;;;17.70;54.72;98449.50;5155479;27;42839;-82
2023/07/23 02:45:09;;;;;;;4.33;2.87;;;;;;;17.86;54.52;98487.19;5138733;27;41128;-82
2023/07/23 02:47:36;;;;;;;3.47;3.10;;;;;;;17.81;54.55;98494.84;5138902;27;39207;-82
2023/07/23 02:50:07;;;;;;;4.30;3.17;;;;;;;17.77;54.65;98488.13;5138140;27;41914;-81
2023/07/23 02:52:35;;;;;;;3.97;3.57;;;;;;;17.73;54.88;98489.41;5156458;27;42142;-82
2023/07/23 02:55:05;;;;;;;3.40;3.03;;;;;;;17.59;55.00;98475.47;5156520;27;20217;-81
2023/07/23 02:57:32;;;;;;;3.70;3.23;;;;;;;17.66;54.74;98496.34;5155025;27;41014;-82
2023/07/23 03:00:01;;;;;;;4.77;2.93;;;;;;;17.62;55.01;98489.56;5155248;27;41730;-80
2023/07/23 03:02:30;;;;;;;3.80;3.03;;;;;;;17.58;54.99;98494.38;5137948;27;42903;-81
2023/07/23 03:05:00;;;;;;;5.13;2.80;;;;;;;17.52;55.17;98490.47;5138184;27;41475;-82
2023/07/23 03:07:31;;;;;;;3.73;3.07;;;;;;;17.49;55.05;98497.94;5138090;27;40013;-82
2023/07/23 03:09:59;;;;;;;2.90;2.67;;;;;;;17.45;54.94;98494.72;5151032;27;41816;-82
2023/07/23 03:12:27;;;;;;;3.30;2.90;;;;;;;17.40;55.22;98497.00;5136015;27;41849;-83
2023/07/23 03:14:54;;;;;;;3.07;2.70;;;;;;;17.35;54.97;98490.41;5154089;27;42383;-83
2023/07/23 03:17:22;;;;;;;3.17;2.87;;;;;;;17.32;55.38;98499.56;5153824;27;40561;-82
2023/07/23 03:19:50;;;;;;;4.17;2.90;;;;;;;17.30;55.53;98496.22;5154046;27;40735;-83
2023/07/23 03:22:18;;;;;;;3.63;3.20;;;;;;;17.16;55.37;98480.63;5136465;27;42829;-81
2023/07/23 03:24:47;;;;;;;3.43;2.80;;;;;;;17.23;55.64;98498.63;5154159;27;42167;-81
2023/07/23 03:27:15;;;;;;;3.53;3.10;;;;;;;17.19;55.75;98493.69;5153613;27;39526;-82
2023/07/23 03:29:42;;;;;;;3.20;2.43;;;;;;;17.18;55.74;98497.38;5136542;27;40721;-83
2023/07/23 03:32:11;;;;;;;3.10;2.77;;;;;;;17.16;55.52;98494.00;5136347;27;41408;-82
2023/07/23 03:34:38;;;;;;;3.60;2.90;;;;;;;17.14;55.79;98495.97;5153747;27;40854;-81
2023/07/23 03:37:07;;;;;;;3.13;2.83;;;;;;;17.10;55.71;98489.22;5136171;27;39385;-82
2023/07/23 03:39:35;;;;;;;3.67;2.90;;;;;;;16.99;55.69;98476.88;5154106;27;41784;-83
2023/07/23 03:42:06;;;;;;;3.17;2.70;;;;;;;16.94;56.17;98467.59;5137294;27;41633;-82
2023/07/23 03:44:34;;;;;;;3.60;3.20;;;;;;;16.90;56.34;98459.03;5137359;27;41567;-82
2023/07/23 03:47:05;;;;;;;3.50;3.20;;;;;;;16.92;56.71;98472.25;5154411;27;41085;-83
2023/07/23 03:49:33;;;;;;;3.60;2.80;;;;;;;16.98;56.44;98485.88;5137474;27;40972;-81
2023/07/23 03:52:02;;;;;;;2.50;2.30;;;;;;;16.97;56.60;98492.22;5154005;27;43608;-81
2023/07/23 03:54:30;;;;;;;3.50;2.73;;;;;;;16.85;56.82;98472.81;5154621;27;42643;-81
2023/07/23 03:56:57;;;;;;;4.43;3.60;;;;;;;16.86;57.29;98476.34;5136796;27;40139;-81
2023/07/23 03:59:30;;;;;;;5.10;3.37;;;;;;;16.77;57.37;98462.00;5154696;27;41738;-81
2023/07/23 04:01:58;;;;;;;3.33;2.90;;;;;;;16.91;57.85;98486.63;5151356;27;42591;-81
2023/07/23 04:04:25;;;;;;;6.33;3.40;;;;;;;16.88;57.69;98480.56;5154380;27;42276;-82
2023/07/23 04:06:53;;;;;;;3.40;2.90;;;;;;;16.78;57.42;98471.72;5136629;27;40470;-81
2023/07/23 04:09:21;;;;;;;5.90;3.67;;;;;;;16.88;58.04;98477.88;5136208;27;41954;-82
2023/07/23 04:11:49;;;;;;;3.97;3.20;;;;;;;16.88;58.48;98475.22;5135041;27;41868;-83
2023/07/23 04:14:19;;;;;;;3.60;3.17;;;;;;;16.90;58.48;98475.06;5136284;27;42216;-81
2023/07/23 04:16:49;;;;;;;5.63;3.90;;;;;;;16.91;58.14;98481.25;5134574;27;39170;-82
2023/07/23 04:19:18;;;;;;;4.00;3.30;;;;;;;16.85;58.42;98467.47;5158870;27;41080;-81
2023/07/23 04:21:46;;;;;;;3.47;3.07;;;;;;;16.98;58.26;98475.19;5148124;27;42082;-81
2023/07/23 04:24:14;;;;;;;3.47;2.90;;;;;;;17.04;58.21;98479.13;5142129;27;42120;-82
2023/07/23 04:26:41;;;;;;;4.43;3.13;;;;;;;17.11;58.60;98481.03;5153008;27;40552;-81
2023/07/23 04:29:09;;;;;;;3.47;3.17;;;;;;;17.18;58.22;98470.63;5135533;27;40597;-81
2023/07/23 04:31:37;;;;;;;3.60;3.03;;;;;;;17.19;58.10;98458.91;5135819;27;42905;-81
2023/07/23 04:34:07;;;;;;;5.37;3.50;;;;;;;17.44;58.05;98476.97;5135684;27;40947;-81
2023/07/23 04:36:35;;;;;;;3.43;3.13;;;;;;;17.57;57.94;98485.50;5153855;27;40106;-81
2023/07/23 04:39:03;;;;;;;3.17;2.83;;;;;;;17.71;58.11;98484.19;5152567;27;41497;-81
2023/07/23 04:41:31;;;;;;;5.20;3.30;;;;;;;17.70;57.58;98454.88;5136108;27;44382;-80
2023/07/23 04:43:58;;;;;;;3.83;3.07;;;;;;;17.95;56.99;98478.25;5136205;27;42244;-82
2023/07/23 04:46:26;;;;;;;3.63;3.30;;;;;;;17.93;57.18;98440.03;5155153;27;39961;-81
2023/07/23 04:48:54;;;;;;;2.70;2.50;;;;;;;18.22;56.81;98459.44;5153327;27;40599;-81
2023/07/23 04:51:24;;;;;;;3.90;2.60;;;;;;;18.50;56.80;98476.28;5153186;27;41647;-81
2023/07/23 04:53:51;;;;;;;3.97;2.90;;;;;;;18.66;56.78;98491.69;5151804;27;41123;-81
2023/07/23 04:56:19;;;;;;;3.77;2.60;;;;;;;18.72;56.15;98472.28;5152321;27;41831;-81
2023/07/23 04:58:47;;;;;;;3.80;3.17;;;;;;;18.96;55.87;98483.19;5152049;27;41715;-81
2023/07/23 05:01:15;;;;;;;3.40;2.70;;;;;;;19.11;55.94;98486.13;5152431;27;43751;-81
2023/07/23 05:03:42;;;;;;;2.93;2.63;;;;;;;19.14;55.28;98474.25;5134886;27;40891;-80
2023/07/23 05:06:10;;;;;;;5.53;2.90;;;;;;;19.35;55.09;98496.16;5153417;27;39966;-81
2023/07/23 05:08:40;;;;;;;3.43;2.93;;;;;;;19.34;55.05;98475.69;5134750;27;40685;-81
2023/07/23 05:11:07;;;;;;;3.70;2.73;;;;;;;19.58;54.77;98489.25;5151941;27;43247;-81
2023/07/23 05:13:36;;;;;;;5.87;2.97;;;;;;;19.67;54.71;98488.28;5152136;27;43236;-81
2023/07/23 05:16:04;;;;;;;3.20;2.70;;;;;;;19.70;54.72;98477.22;5152302;27;39881;-81
2023/07/23 05:18:32;;;;;;;4.57;3.03;;;;;;;19.89;54.06;98492.22;5151862;27;40722;-82
2023/07/23 05:21:02;;;;;;;3.47;3.17;;;;;;;19.98;54.49;98493.09;5152559;27;42809;-82
2023/07/23 05:23:30;;;;;;;3.70;3.27;;;;;;;20.02;54.17;98479.16;5152314;27;42690;-82
2023/07/23 05:25:59;;;;;;;3.53;3.17;;;;;;;20.16;53.57;98466.06;5135103;27;39232;-82
2023/07/23 05:28:27;;;;;;;2.90;2.50;;;;;;;20.41;53.58;98492.84;5135956;27;40724;-83
2023/07/23 05:30:58;;;;;;;3.77;2.93;;;;;;;20.55;53.22;98493.19;5138417;27;42166;-82
2023/07/23 05:33:25;;;;;;;2.77;2.57;;;;;;;20.71;53.15;98498.59;5138223;27;41115;-83
2023/07/23 05:35:53;;;;;;;3.13;2.80;;;;;;;20.85;52.48;98494.38;5157011;27;40470;-82
2023/07/23 05:38:21;;;;;;;3.30;3.00;;;;;;;20.95;52.66;98495.88;5138333;27;41845;-81
2023/07/23 05:40:59;;;;;;;3.37;2.70;;;;;;;21.12;52.28;98507.47;5138659;27;41638;-83
2023/07/23 05:43:27;;;;;;;2.77;2.50;;;;;;;21.15;51.85;98486.41;5155333;27;42229;-82
2023/07/23 05:45:55;;;;;;;3.10;2.73;;;;;;;21.41;51.81;98499.66;5139503;27;40942;-82
2023/07/23 05:48:23;;;;;;;3.20;2.40;;;;;;;21.48;51.67;98486.34;5139530;27;41833;-82
2023/07/23 05:50:50;;;;;;;3.00;2.70;;;;;;;21.69;51.31;98505.47;5156711;27;41883;-82
2023/07/23 05:53:18;;;;;;;4.50;2.90;;;;;;;21.80;50.86;98513.16;5156648;27;41381;-81
2023/07/23 05:55:46;;;;;;;4.03;2.47;;;;;;;21.83;51.03;98509.28;5139472;27;40110;-82
2023/07/23 05:58:15;;;;;;;3.13;2.83;;;;;;;21.96;50.46;98503.34;5156048;27;41869;-82
2023/07/23 06:00:43;;;;;;;4.00;2.60;;;;;;;22.01;49.80;98503.66;5157872;27;43095;-84
2023/07/23 06:03:10;;;;;;;3.47;2.73;;;;;;;22.15;49.42;98511.00;5122051;27;42771;-81
2023/07/23 06:05:38;;;;;;;2.87;2.53;;;;;;;22.15;49.55;98508.28;5139086;27;39194;-82
2023/07/23 06:08:06;;;;;;;3.10;2.70;;;;;;;22.31;48.95;98520.84;5156133;27;41159;-82
2023/07/23 06:10:34;;;;;;;4.00;2.70;;;;;;;22.30;49.07;98493.03;5154740;27;42486;-82
2023/07/23 06:13:01;;;;;;;2.87;2.57;;;;;;;22.51;49.22;98506.69;5137415;27;42172;-83
2023/07/23 06:15:30;;;;;;;3.03;2.60;;;;;;;22.70;48.72;98515.34;5155708;27;38446;-82
2023/07/23 06:17:58;;;;;;;2.93;2.63;;;;;;;22.67;48.43;98494.94;5137807;27;40750;-83
2023/07/23 06:20:26;;;;;;;3.00;2.40;;;;;;;22.79;47.83;98511.59;5156463;27;42767;-82
2023/07/23 06:22:54;;;;;;;3.07;2.63;;;;;;;22.79;47.93;98504.31;5155197;27;43089;-83
2023/07/23 06:25:22;;;;;;;3.03;2.53;;;;;;;22.98;47.42;98519.19;5138327;27;38973;-82
2023/07/23 06:27:50;;;;;;;4.53;2.93;;;;;;;23.02;47.42;98503.44;5155149;27;41822;-84
2023/07/23 06:30:18;;;;;;;2.70;2.30;;;;;;;23.22;46.85;98513.56;5137532;27;42760;-80
2023/07/23 06:32:47;;;;;;;2.77;2.53;;;;;;;23.34;46.17;98522.06;5154700;27;40994;-80
2023/07/23 06:35:15;;;;;;;3.43;2.67;;;;;;;23.45;45.69;98509.94;5154923;27;41145;-83
2023/07/23 06:37:43;;;;;;;5.47;2.67;;;;;;;23.59;44.96;98511.84;5154079;27;42515;-84
2023/07/23 06:40:11;;;;;;;3.33;2.67;;;;;;;23.85;44.92;98517.59;5136210;27;42134;-84
2023/07/23 06:42:38;;;;;;;3.13;2.83;;;;;;;24.26;44.22;98533.31;5155318;27;42627;-81
2023/07/23 06:45:07;;;;;;;2.90;2.67;;;;;;;24.51;43.42;98533.78;5155451;27;40466;-81
2023/07/23 06:47:36;;;;;;;3.00;2.70;;;;;;;24.75;42.93;98537.97;5137809;27;41145;-80
2023/07/23 06:50:07;;;;;;;3.57;2.73;;;;;;;24.87;42.57;98539.13;5154697;27;43197;-76
2023/07/23 06:52:35;;;;;;;3.93;3.00;;;;;;;24.93;41.92;98538.41;5152668;27;43023;-83
2023/07/23 06:55:03;;;;;;;3.80;2.93;;;;;;;25.00;42.48;98539.28;5155273;27;40062;-80
2023/07/23 06:57:30;;;;;;;3.37;3.07;;;;;;;24.99;42.19;98524.91;5136802;27;40697;-84
2023/07/23 06:59:58;;;;;;;4.60;3.17;;;;;;;25.12;41.79;98532.31;5154249;27;41959;-85
2023/07/23 07:02:26;;;;;;;3.10;2.40;;;;;;;25.23;42.08;98539.88;5154970;27;42389;-82
2023/07/23 07:04:54;;;;;;;3.07;2.60;;;;;;;25.45;41.59;98558.84;5138027;27;39015;-82
2023/07/23 07:07:23;;;;;;;3.20;2.30;;;;;;;25.55;41.36;98559.31;5155294;27;42131;-82
2023/07/23 07:09:53;;;;;;;2.80;2.60;;;;;;;25.60;41.26;98556.84;5154862;27;43062;-80
2023/07/23 07:12:21;;;;;;;4.10;2.70;;;;;;;25.75;41.30;98563.00;5153014;27;42316;-80
2023/07/23 07:14:48;;;;;;;4.63;2.50;;;;;;;25.72;40.85;98563.41;5154420;27;39954;-85
2023/07/23 07:17:16;;;;;;;2.73;2.53;;;;;;;25.60;40.76;98570.38;5153681;27;42168;-81
2023/07/23 07:19:44;;;;;;;3.30;2.87;;;;;;;25.56;41.10;98558.28;5153944;27;42924;-83
2023/07/23 07:22:11;;;;;;;3.30;2.60;;;;;;;25.57;40.81;98552.66;5136004;27;43784;-85
2023/07/23 07:24:40;;;;;;;3.03;2.47;;;;;;;25.79;40.14;98545.31;5153985;27;39826;-80
2023/07/23 07:27:10;;;;;;;3.40;2.43;;;;;;;26.32;40.04;98557.28;5153489;27;42012;-82
2023/07/23 07:29:41;;;;;;;2.83;2.53;;;;;;;26.93;39.07;98570.00;5136303;27;43178;-81
2023/07/23 07:32:09;;;;;;;3.40;2.67;;;;;;;27.09;38.32;98564.13;5153711;27;43005;-80
2023/07/23 07:34:37;;;;;;;2.70;2.50;;;;;;;27.56;38.32;98576.72;5153963;27;39980;-81
2023/07/23 07:37:05;;;;;;;2.57;2.37;;;;;;;27.73;38.00;98545.28;5154605;27;42955;-82
2023/07/23 07:39:34;;;;;;;2.87;2.43;;;;;;;28.00;37.02;98570.53;5153321;27;41682;-81
2023/07/23 07:42:04;;;;;;;3.00;2.70;;;;;;;28.12;36.93;98570.72;5154478;27;42602;-79
2023/07/23 07:44:33;;;;;;;2.53;2.33;;;;;;;28.47;36.35;98579.38;5162536;27;39020;-81
2023/07/23 07:47:02;;;;;;;3.37;2.30;;;;;;;28.54;35.57;98569.31;5143146;27;42597;-83
2023/07/23 07:49:30;;;;;;;2.30;2.10;;;;;;;28.62;35.84;98577.22;5137251;27;42844;-81
2023/07/23 07:51:57;;;;;;;2.30;2.10;;;;;;;28.71;35.54;98575.91;5136957;27;41285;-85
2023/07/23 07:54:25;;;;;;;2.23;2.03;;;;;;;28.95;35.24;98577.88;5154750;27;39785;-82
2023/07/23 07:56:54;;;;;;;2.30;2.10;;;;;;;29.89;34.41;98573.31;5136634;27;41868;-83
2023/07/23 07:59:24;;;;;;;3.50;1.93;;;;;;;31.53;32.07;98589.38;5137225;27;41752;-84
2023/07/23 08:01:52;;;;;;;1.80;1.70;;;;;;;32.69;30.49;98601.28;5136554;27;42283;-82
2023/07/23 08:04:20;;;;;;;2.90;1.83;;;;;;;32.60;30.23;98589.03;5154725;27;40077;-79
2023/07/23 08:06:49;;;;;;;1.30;1.20;;;;;;;32.23;30.43;98591.31;5154508;27;40694;-82
2023/07/23 08:09:18;;;;;;;1.50;1.30;;;;;;;32.09;30.66;98577.00;5153756;27;41683;-84
2023/07/23 08:11:48;;;;;;;1.50;1.40;;;;;;;32.17;30.48;98571.13;5152276;27;41314;-85
2023/07/23 08:14:18;;;;;;;2.83;1.33;;;;;;;32.25;30.33;98583.69;5135806;27;42429;-85
2023/07/23 08:16:49;;;;;;;1.50;1.40;;;;;;;33.65;29.44;98586.56;5153367;27;40805;-83
2023/07/23 08:19:18;;;;;;;1.80;1.70;;;;;;;35.14;27.46;98590.97;5150537;27;43775;-85
2023/07/23 08:21:46;;;;;;;2.33;1.50;;;;;;;36.48;26.16;98612.66;5153976;27;42466;-86
2023/07/23 08:24:14;;;;;;;1.50;1.40;;;;;;;36.83;24.61;98614.75;5154033;27;39970;-83
2023/07/23 08:26:42;;;;;;;1.33;1.23;;;;;;;36.51;25.20;98606.59;5153779;27;42708;-84
2023/07/23 08:29:13;;;;;;;4.13;1.30;;;;;;;36.52;25.75;98599.97;5153246;27;42028;-83
2023/07/23 08:31:41;;;;;;;1.60;1.50;;;;;;;36.14;25.80;98608.59;5150992;27;43249;-85
2023/07/23 08:34:12;;;;;;;1.40;1.30;;;;;;;36.39;25.60;98603.22;5154592;27;40274;-83
2023/07/23 08:36:40;;;;;;;1.50;1.40;;;;;;;36.96;25.05;98589.38;5136279;27;40475;-85
2023/07/23 08:39:09;;;;;;;3.93;1.70;;;;;;;36.81;24.34;98599.56;5152775;27;41515;-80
2023/07/23 08:41:38;;;;;;;2.93;1.43;;;;;;;36.28;25.68;98596.00;5153458;27;42106;-84
2023/07/23 08:44:31;;;;;;;1.40;1.30;;;;;;;36.92;25.55;98592.97;5153642;27;40679;-83
2023/07/23 08:47:10;;;;;;;1.77;1.25;;;;;;;37.31;24.31;98583.09;5152300;27;41601;-85
2023/07/23 08:49:41;;;;;;;2.88;1.48;;;;;;;37.18;24.53;98605.72;5153712;27;42928;-83
2023/07/23 08:52:11;;;;;;;3.83;1.63;;;;;;;36.44;25.20;98595.00;5153647;27;42140;-85
2023/07/23 08:54:40;;;;;;;1.42;1.30;;;;;;;36.00;25.54;98603.56;5136244;27;38725;-85
2023/07/23 08:57:09;;;;;;;1.50;1.40;;;;;;;35.46;26.08;98599.28;5153716;27;40758;-82
2023/07/23 08:59:37;;;;;;;2.17;1.43;;;;;;;35.20;26.53;98585.28;5153677;27;42016;-82
2023/07/23 09:02:11;;;;;;;2.40;1.50;;;;;;;34.92;26.38;98585.53;5153950;27;42220;-80
2023/07/23 09:04:40;;;;;;;1.50;1.33;;;;;;;34.30;26.41;98550.16;5136855;27;41158;-80
2023/07/23 09:07:11;;;;;;;1.97;1.50;;;;;;;34.21;27.17;98565.41;5154396;27;41500;-85
2023/07/23 09:09:38;;;;;;;1.73;1.30;;;;;;;34.47;27.28;98586.69;5151248;27;43739;-83
2023/07/23 09:12:07;;;;;;;1.40;1.30;;;;;;;34.23;26.91;98577.81;5134885;27;41263;-82
2023/07/23 09:14:42;;;;;;;2.20;1.30;;;;;;;34.05;27.23;98580.88;5136206;27;39847;-82
2023/07/23 09:17:17;;;;;;;1.50;1.40;;;;;;;33.95;27.97;98561.50;5152431;27;42130;-84
2023/07/23 09:19:47;;;;;;;1.00;0.93;;;;;;;33.98;27.43;98587.66;5149313;27;43859;-80
2023/07/23 09:22:17;;;;;;;2.90;1.40;;;;;;;33.67;27.40;98587.16;5152058;27;42142;-80
2023/07/23 09:24:44;;;;;;;1.43;1.13;;;;;;;33.59;28.14;98573.03;5153056;27;39928;-81
2023/07/23 09:27:12;;;;;;;1.87;1.40;;;;;;;33.53;27.51;98580.34;5151246;27;41808;-81
2023/07/23 09:29:42;;;;;;;1.23;1.13;;;;;;;33.20;27.91;98578.41;5133951;27;41628;-80
2023/07/23 09:32:25;;;;;;;2.00;1.60;;;;;;;32.77;28.43;98570.75;5152874;27;42073;-81
2023/07/23 09:34:56;;;;;;;2.20;1.40;;;;;;;32.34;29.27;98566.59;5134637;27;38907;-80
2023/07/23 09:37:23;;;;;;;1.93;1.10;;;;;;;32.41;29.79;98578.25;5149519;27;41564;-82
2023/07/23 09:39:55;;;;;;;2.07;1.33;;;;;;;32.39;29.56;98569.44;5134352;27;42548;-81
2023/07/23 09:42:23;;;;;;;1.40;1.30;;;;;;;32.31;29.53;98578.03;5150202;27;42535;-81
2023/07/23 09:44:51;;;;;;;1.70;1.60;;;;;;;32.10;29.77;98552.09;5153637;27;40856;-80
2023/07/23 09:47:24;;;;;;;1.53;1.40;;;;;;;32.09;29.64;98577.00;5153684;27;41676;-81
2023/07/23 09:49:54;;;;;;;1.50;1.40;;;;;;;31.86;29.90;98574.28;5134832;27;42889;-79
2023/07/23 09:52:24;;;;;;;2.53;1.23;;;;;;;31.47;30.37;98565.69;5151136;27;43269;-79
2023/07/23 09:54:52;;;;;;;2.60;1.40;;;;;;;31.29;31.06;98557.56;5152593;27;41017;-80
2023/07/23 09:57:20;;;;;;;1.30;1.20;;;;;;;31.07;31.30;98547.16;5135150;27;41751;-80
2023/07/23 09:59:49;;;;;;;1.70;1.40;;;;;;;31.02;31.71;98558.00;5135176;27;41764;-80
2023/07/23 10:02:17;;;;;;;1.70;1.60;;;;;;;30.96;32.04;98547.97;5151914;27;41580;-79
2023/07/23 10:04:46;;;;;;;1.93;1.40;;;;;;;31.02;32.16;98541.59;5134843;27;39211;-79
2023/07/23 10:07:16;;;;;;;2.23;1.40;;;;;;;31.02;31.39;98558.00;5153274;27;43211;-82
2023/07/23 10:09:44;;;;;;;1.60;1.50;;;;;;;30.96;31.25;98531.56;5133772;27;43200;-80
2023/07/23 10:12:12;;;;;;;1.20;1.10;;;;;;;31.26;31.00;98547.13;5132991;27;42443;-81
2023/07/23 10:14:40;;;;;;;2.67;1.50;;;;;;;31.47;31.10;98567.59;5151603;27;40014;-80
2023/07/23 10:17:09;;;;;;;1.40;1.30;;;;;;;31.63;30.10;98566.91;5155607;27;41811;-79
2023/07/23 10:19:36;;;;;;;2.10;1.70;;;;;;;31.76;30.10;98559.31;5155913;27;42809;-81
2023/07/23 10:22:04;;;;;;;3.33;1.20;;;;;;;31.74;29.58;98564.19;5154405;27;42255;-79
2023/07/23 10:24:41;;;;;;;2.80;1.60;;;;;;;31.73;29.79;98570.72;5154979;27;40853;-82
2023/07/23 10:27:14;;;;;;;1.87;1.50;;;;;;;31.68;30.07;98564.28;5152103;27;41675;-80
2023/07/23 10:29:42;;;;;;;1.77;1.40;;;;;;;31.66;29.96;98564.53;5137393;27;43487;-79
2023/07/23 10:32:26;;;;;;;2.37;1.50;;;;;;;31.69;29.19;98577.75;5155552;27;43228;-80
2023/07/23 10:34:54;;;;;;;1.27;1.17;;;;;;;31.52;29.34;98574.03;5154401;27;39097;-80
2023/07/23 10:37:22;;;;;;;2.70;1.47;;;;;;;31.51;29.42;98577.00;5154358;27;42654;-82
2023/07/23 10:39:55;;;;;;;1.50;1.40;;;;;;;31.64;29.38;98574.91;5136930;27;41593;-82
2023/07/23 10:42:41;;;;;;;2.63;1.40;;;;;;;32.00;29.81;98559.28;5137458;27;41496;-80
2023/07/23 10:45:24;;;;;;;1.50;1.40;;;;;;;32.15;28.79;98562.31;5155793;27;40776;-80
2023/07/23 10:47:53;;;;;;;2.23;1.43;;;;;;;32.29;28.85;98565.66;5155175;27;42064;-81
2023/07/23 10:50:23;;;;;;;1.50;1.40;;;;;;;32.35;28.89;98557.31;5154764;27;42934;-80
2023/07/23 10:52:52;;;;;;;2.40;1.37;;;;;;;32.58;28.59;98539.09;5137521;27;40901;-81
2023/07/23 10:55:47;;;;;;;1.97;1.87;;;;;;;33.02;27.94;98552.00;5156647;27;39801;-80
2023/07/23 10:58:19;;;;;;;1.50;1.40;;;;;;;33.58;27.65;98541.97;5119072;27;40808;-81
2023/07/23 11:00:48;;;;;;;1.60;1.50;;;;;;;34.28;26.87;98538.56;5151928;27;42861;-81
2023/07/23 11:03:20;;;;;;;3.00;1.50;;;;;;;34.76;26.49;98540.50;5154557;27;41202;-80
2023/07/23 11:05:48;;;;;;;2.53;1.50;;;;;;;34.99;25.93;98549.56;5142973;27;39230;-80
2023/07/23 11:08:17;;;;;;;3.33;1.53;;;;;;;34.96;25.63;98556.41;5140979;27;41762;-82
2023/07/23 11:10:48;;;;;;;1.83;1.60;;;;;;;34.75;25.39;98560.84;5154267;27;42797;-82
2023/07/23 11:13:16;;;;;;;2.17;1.50;;;;;;;34.47;25.57;98544.59;5136607;27;41731;-82
2023/07/23 11:15:45;;;;;;;2.70;1.80;;;;;;;34.40;25.21;98560.44;5155485;27;40014;-80
2023/07/23 11:18:13;;;;;;;1.73;1.57;;;;;;;34.01;25.73;98549.47;5153822;27;42762;-81
2023/07/23 11:20:46;;;;;;;1.70;1.60;;;;;;;33.98;26.35;98544.50;5153677;27;42955;-80
2023/07/23 11:23:14;;;;;;;1.60;1.50;;;;;;;34.41;25.71;98537.34;5153802;27;42244;-85
2023/07/23 11:25:42;;;;;;;1.70;1.60;;;;;;;34.18;26.28;98486.19;5153547;27;39721;-79
2023/07/23 11:28:11;;;;;;;1.70;1.60;;;;;;;34.33;25.57;98530.41;5153250;27;40443;-79
2023/07/23 11:30:39;;;;;;;1.80;1.50;;;;;;;34.01;25.53;98513.75;5135995;27;41660;-81
2023/07/23 11:33:08;;;;;;;3.57;1.60;;;;;;;33.93;26.17;98538.94;5153036;27;42420;-80
2023/07/23 11:35:37;;;;;;;1.80;1.70;;;;;;;33.67;26.39;98543.19;5153531;27;41027;-80
2023/07/23 11:38:05;;;;;;;2.80;1.63;;;;;;;33.52;26.79;98529.25;5153228;27;41741;-80
2023/07/23 11:40:33;;;;;;;1.67;1.53;;;;;;;33.24;27.52;98529.38;5153748;27;42731;-80
2023/07/23 11:43:04;;;;;;;1.80;1.60;;;;;;;32.98;27.81;98506.97;5154309;27;42344;-80